^^
Station Historical Data
Daily Summary for March 3, 2018 Units:  Both    English   Metric
« Previous Day
Next Day »
Daily Weekly Monthly Yearly Custom
  High: Low: Average:
Temperature: TemperatureF °F /  -17.8 °C 65.5 °F /  18.6 °C 76.7 °F /  24.8 °C
Dew Point: DewpointF °F /  -17.8 °C 47.8 °F /  8.8 °C 49.9 °F /  9.9 °C
Humidity: Humidity% 31% 39%
Wind Speed: WindSpeedMPHmph /  0km/h - -4.8mph /  -7.7km/h
Wind Gust: WindSpeedGustMPHmph /  0km/h - -
Wind- - ENE
Pressure: PressureIn in /  0 hPa 29.52 in /  999.5 hPa -
Precipitation: 0.00 in /  0 mm    
Historical Graphs
 
 
Tabular Data for March 3, 2018
Time Temperature Dew Point Pressure Wind Wind Speed Wind Gust Humidity Rainfall Rate (Hourly) solar Conditions
TemperatureF °F /  -17.8 °C DewpointF °F /  -17.8 °C PressureInin /  0hPa Calm     Humidity% HourlyPrecipInin /  0mm SoftwareType W/m2 Conditions
07:57 65.5 °F /  18.6 °C 48.9 °F /  9.4 °C 29.66in /  1004.3hPa North 2.9mph /  4.7km/h 4.0mph /  6.4km/h 55% 0.00in /  0mm meteobridge W/m2
08:03 65.7 °F /  18.7 °C 50.5 °F /  10.3 °C 29.66in /  1004.3hPa North 4.0mph /  6.4km/h 7.0mph /  11.3km/h 58% 0.00in /  0mm meteobridge W/m2
08:09 65.7 °F /  18.7 °C 50.9 °F /  10.5 °C 29.67in /  1004.6hPa North 2.0mph /  3.2km/h 6.0mph /  9.7km/h 59% 0.00in /  0mm meteobridge W/m2
08:16 66.2 °F /  19 °C 50.9 °F /  10.5 °C 29.67in /  1004.6hPa Calm   3.0mph /  4.8km/h 58% 0.00in /  0mm meteobridge W/m2
08:22 67.3 °F /  19.6 °C 50.5 °F /  10.3 °C 29.67in /  1004.6hPa Calm   2.0mph /  3.2km/h 55% 0.00in /  0mm meteobridge W/m2
08:28 68.4 °F /  20.2 °C 51.1 °F /  10.6 °C 29.67in /  1004.6hPa Calm   2.0mph /  3.2km/h 54% 0.00in /  0mm meteobridge W/m2
08:35 69.3 °F /  20.7 °C 51.4 °F /  10.8 °C 29.67in /  1004.6hPa North 0.9mph /  1.4km/h 2.0mph /  3.2km/h 53% 0.00in /  0mm meteobridge W/m2
08:41 70.3 °F /  21.3 °C 51.4 °F /  10.8 °C 29.67in /  1004.6hPa North 2.9mph /  4.7km/h 3.0mph /  4.8km/h 51% 0.00in /  0mm meteobridge W/m2
08:47 70.9 °F /  21.6 °C 50.2 °F /  10.1 °C 29.67in /  1004.6hPa North 0.9mph /  1.4km/h 4.0mph /  6.4km/h 48% 0.00in /  0mm meteobridge W/m2
08:53 71.1 °F /  21.7 °C 49.8 °F /  9.9 °C 29.67in /  1004.6hPa North 2.0mph /  3.2km/h 4.0mph /  6.4km/h 47% 0.00in /  0mm meteobridge W/m2
08:59 71.1 °F /  21.7 °C 49.8 °F /  9.9 °C 29.67in /  1004.6hPa NNE 2.0mph /  3.2km/h 9.0mph /  14.5km/h 47% 0.00in /  0mm meteobridge W/m2
09:05 71.1 °F /  21.7 °C 49.8 °F /  9.9 °C 29.67in /  1004.6hPa NNE 4.0mph /  6.4km/h 4.0mph /  6.4km/h 47% 0.00in /  0mm meteobridge W/m2
09:11 71.1 °F /  21.7 °C 49.3 °F /  9.6 °C 29.67in /  1004.6hPa NNW 2.0mph /  3.2km/h 6.0mph /  9.7km/h 46% 0.00in /  0mm meteobridge W/m2
09:24 71.2 °F /  21.8 °C 50.0 °F /  10 °C 29.67in /  1004.6hPa NNE 4.0mph /  6.4km/h 10.0mph /  16.1km/h 47% 0.00in /  0mm meteobridge W/m2
09:30 71.4 °F /  21.9 °C 50.2 °F /  10.1 °C 29.67in /  1004.6hPa NNE 6.0mph /  9.7km/h 7.0mph /  11.3km/h 47% 0.00in /  0mm meteobridge W/m2
09:36 71.8 °F /  22.1 °C 50.5 °F /  10.3 °C 29.67in /  1004.6hPa NNE 0.9mph /  1.4km/h 5.0mph /  8km/h 47% 0.00in /  0mm meteobridge W/m2
09:42 73.0 °F /  22.8 °C 51.1 °F /  10.6 °C 29.67in /  1004.6hPa WSW 2.0mph /  3.2km/h 4.0mph /  6.4km/h 46% 0.00in /  0mm meteobridge W/m2
09:48 73.2 °F /  22.9 °C 50.5 °F /  10.3 °C 29.67in /  1004.6hPa WNW 4.9mph /  7.9km/h 7.0mph /  11.3km/h 45% 0.00in /  0mm meteobridge W/m2
09:54 73.9 °F /  23.3 °C 51.3 °F /  10.7 °C 29.67in /  1004.6hPa ESE 0.9mph /  1.4km/h 5.0mph /  8km/h 45% 0.00in /  0mm meteobridge W/m2
10:01 74.5 °F /  23.6 °C 52.3 °F /  11.3 °C 29.67in /  1004.6hPa SSE 0.9mph /  1.4km/h 6.0mph /  9.7km/h 46% 0.00in /  0mm meteobridge W/m2
10:07 74.7 °F /  23.7 °C 52.5 °F /  11.4 °C 29.67in /  1004.6hPa SSE 2.0mph /  3.2km/h 6.0mph /  9.7km/h 46% 0.00in /  0mm meteobridge W/m2
10:13 74.3 °F /  23.5 °C 52.2 °F /  11.2 °C 29.67in /  1004.6hPa Calm   3.0mph /  4.8km/h 46% 0.00in /  0mm meteobridge W/m2
10:19 75.2 °F /  24 °C 52.3 °F /  11.3 °C 29.67in /  1004.6hPa SSE 4.9mph /  7.9km/h 6.0mph /  9.7km/h 45% 0.00in /  0mm meteobridge W/m2
10:25 74.7 °F /  23.7 °C 51.3 °F /  10.7 °C 29.67in /  1004.6hPa Calm   5.0mph /  8km/h 44% 0.00in /  0mm meteobridge W/m2
10:31 74.8 °F /  23.8 °C 52.2 °F /  11.2 °C 29.67in /  1004.6hPa SSE 2.0mph /  3.2km/h 7.0mph /  11.3km/h 45% 0.00in /  0mm meteobridge W/m2
10:37 75.9 °F /  24.4 °C 52.5 °F /  11.4 °C 29.67in /  1004.6hPa North 6.0mph /  9.7km/h 10.0mph /  16.1km/h 44% 0.00in /  0mm meteobridge W/m2
10:43 75.6 °F /  24.2 °C 52.2 °F /  11.2 °C 29.67in /  1004.6hPa NNE 6.9mph /  11.1km/h 11.0mph /  17.7km/h 44% 0.00in /  0mm meteobridge W/m2
10:49 75.7 °F /  24.3 °C 51.6 °F /  10.9 °C 29.66in /  1004.3hPa Calm   5.0mph /  8km/h 43% 0.00in /  0mm meteobridge W/m2
10:55 75.6 °F /  24.2 °C 52.2 °F /  11.2 °C 29.66in /  1004.3hPa NNE 6.0mph /  9.7km/h 6.0mph /  9.7km/h 44% 0.00in /  0mm meteobridge W/m2
11:04 76.1 °F /  24.5 °C 52.5 °F /  11.4 °C 29.66in /  1004.3hPa North 4.0mph /  6.4km/h 7.0mph /  11.3km/h 44% 0.00in /  0mm meteobridge W/m2
11:10 76.6 °F /  24.8 °C 51.8 °F /  11 °C 29.66in /  1004.3hPa NW 4.0mph /  6.4km/h 4.0mph /  6.4km/h 42% 0.00in /  0mm meteobridge W/m2
11:16 76.5 °F /  24.7 °C 52.3 °F /  11.3 °C 29.66in /  1004.3hPa NNW 2.0mph /  3.2km/h 6.0mph /  9.7km/h 43% 0.00in /  0mm meteobridge W/m2
11:22 76.5 °F /  24.7 °C 52.3 °F /  11.3 °C 29.66in /  1004.3hPa ENE 2.0mph /  3.2km/h 9.0mph /  14.5km/h 43% 0.00in /  0mm meteobridge W/m2
11:28 77.7 °F /  25.4 °C 52.2 °F /  11.2 °C 29.65in /  1003.9hPa NNW 4.0mph /  6.4km/h 5.0mph /  8km/h 41% 0.00in /  0mm meteobridge W/m2
11:34 77.4 °F /  25.2 °C 52.5 °F /  11.4 °C 29.65in /  1003.9hPa North 11.0mph /  17.7km/h 11.0mph /  17.7km/h 42% 0.00in /  0mm meteobridge W/m2
11:40 75.9 °F /  24.4 °C 52.5 °F /  11.4 °C 29.65in /  1003.9hPa NNW 2.9mph /  4.7km/h 10.0mph /  16.1km/h 44% 0.00in /  0mm meteobridge W/m2
11:47 77.2 °F /  25.1 °C 53.6 °F /  12 °C 29.65in /  1003.9hPa North 6.9mph /  11.1km/h 7.0mph /  11.3km/h 44% 0.00in /  0mm meteobridge W/m2
11:53 78.3 °F /  25.7 °C 52.0 °F /  11.1 °C 29.65in /  1003.9hPa North 4.9mph /  7.9km/h 16.0mph /  25.7km/h 40% 0.00in /  0mm meteobridge W/m2
11:59 78.3 °F /  25.7 °C 52.0 °F /  11.1 °C 29.64in /  1003.6hPa NNE 15.0mph /  24.1km/h 15.0mph /  24.1km/h 40% 0.00in /  0mm meteobridge W/m2
12:05 77.7 °F /  25.4 °C 51.4 °F /  10.8 °C 29.64in /  1003.6hPa North 2.0mph /  3.2km/h 11.0mph /  17.7km/h 40% 0.00in /  0mm meteobridge W/m2
12:11 78.4 °F /  25.8 °C 52.2 °F /  11.2 °C 29.63in /  1003.3hPa North 16.1mph /  25.9km/h 17.0mph /  27.4km/h 40% 0.00in /  0mm meteobridge W/m2
12:17 78.3 °F /  25.7 °C 52.0 °F /  11.1 °C 29.64in /  1003.6hPa NE 8.1mph /  13km/h 15.0mph /  24.1km/h 40% 0.00in /  0mm meteobridge W/m2
12:23 78.6 °F /  25.9 °C 52.3 °F /  11.3 °C 29.63in /  1003.3hPa North 4.0mph /  6.4km/h 24.0mph /  38.6km/h 40% 0.00in /  0mm meteobridge W/m2
12:30 78.1 °F /  25.6 °C 51.8 °F /  11 °C 29.63in /  1003.3hPa North 0.9mph /  1.4km/h 5.0mph /  8km/h 40% 0.00in /  0mm meteobridge W/m2
12:36 77.5 °F /  25.3 °C 51.3 °F /  10.7 °C 29.63in /  1003.3hPa NNW 4.9mph /  7.9km/h 13.0mph /  20.9km/h 40% 0.00in /  0mm meteobridge W/m2
12:42 78.3 °F /  25.7 °C 52.0 °F /  11.1 °C 29.62in /  1002.9hPa North 6.0mph /  9.7km/h 9.0mph /  14.5km/h 40% 0.00in /  0mm meteobridge W/m2
12:48 79.0 °F /  26.1 °C 51.3 °F /  10.7 °C 29.62in /  1002.9hPa North 13.0mph /  20.9km/h 19.0mph /  30.6km/h 38% 0.00in /  0mm meteobridge W/m2
12:54 78.6 °F /  25.9 °C 51.6 °F /  10.9 °C 29.62in /  1002.9hPa NNE 8.9mph /  14.3km/h 19.0mph /  30.6km/h 39% 0.00in /  0mm meteobridge W/m2
13:00 78.1 °F /  25.6 °C 51.1 °F /  10.6 °C 29.62in /  1002.9hPa NNE 12.1mph /  19.5km/h 14.0mph /  22.5km/h 39% 0.00in /  0mm meteobridge W/m2
13:06 79.9 °F /  26.6 °C 50.5 °F /  10.3 °C 29.62in /  1002.9hPa NE 6.9mph /  11.1km/h 13.0mph /  20.9km/h 36% 0.00in /  0mm meteobridge W/m2
13:12 80.1 °F /  26.7 °C 50.7 °F /  10.4 °C 29.62in /  1002.9hPa NE 8.1mph /  13km/h 18.0mph /  29km/h 36% 0.00in /  0mm meteobridge W/m2
13:19 79.9 °F /  26.6 °C 49.8 °F /  9.9 °C 29.62in /  1002.9hPa NNW 10.1mph /  16.3km/h 16.0mph /  25.7km/h 35% 0.00in /  0mm meteobridge W/m2
13:25 80.4 °F /  26.9 °C 50.2 °F /  10.1 °C 29.62in /  1002.9hPa NNE 6.9mph /  11.1km/h 10.0mph /  16.1km/h 35% 0.00in /  0mm meteobridge W/m2
13:31 81.0 °F /  27.2 °C 50.7 °F /  10.4 °C 29.62in /  1002.9hPa NNW 14.1mph /  22.7km/h 14.1mph /  22.7km/h 35% 0.00in /  0mm meteobridge W/m2
13:37 80.4 °F /  26.9 °C 48.7 °F /  9.3 °C 29.61in /  1002.6hPa North 12.1mph /  19.5km/h 21.0mph /  33.8km/h 33% 0.00in /  0mm meteobridge W/m2
13:43 80.1 °F /  26.7 °C 49.1 °F /  9.5 °C 29.61in /  1002.6hPa North 12.1mph /  19.5km/h 15.0mph /  24.1km/h 34% 0.00in /  0mm meteobridge W/m2
13:49 80.4 °F /  26.9 °C 49.5 °F /  9.7 °C 29.61in /  1002.6hPa NNW 13.0mph /  20.9km/h 18.0mph /  29km/h 34% 0.00in /  0mm meteobridge W/m2
13:55 81.7 °F /  27.6 °C 49.8 °F /  9.9 °C 29.60in /  1002.3hPa NNE 8.1mph /  13km/h 12.0mph /  19.3km/h 33% 0.00in /  0mm meteobridge W/m2
14:01 81.3 °F /  27.4 °C 50.2 °F /  10.1 °C 29.60in /  1002.3hPa North 10.1mph /  16.3km/h 17.0mph /  27.4km/h 34% 0.00in /  0mm meteobridge W/m2
14:07 81.9 °F /  27.7 °C 50.0 °F /  10 °C 29.59in /  1001.9hPa North 13.0mph /  20.9km/h 16.0mph /  25.7km/h 33% 0.00in /  0mm meteobridge W/m2
14:14 82.4 °F /  28 °C 50.4 °F /  10.2 °C 29.59in /  1001.9hPa North 4.9mph /  7.9km/h 10.0mph /  16.1km/h 33% 0.00in /  0mm meteobridge W/m2
14:20 82.2 °F /  27.9 °C 49.5 °F /  9.7 °C 29.59in /  1001.9hPa North 13.0mph /  20.9km/h 17.0mph /  27.4km/h 32% 0.00in /  0mm meteobridge W/m2
14:26 81.1 °F /  27.3 °C 48.6 °F /  9.2 °C 29.59in /  1001.9hPa NNW 4.9mph /  7.9km/h 15.0mph /  24.1km/h 32% 0.00in /  0mm meteobridge W/m2
14:32 81.9 °F /  27.7 °C 48.2 °F /  9 °C 29.58in /  1001.6hPa NNE 6.0mph /  9.7km/h 15.0mph /  24.1km/h 31% 0.00in /  0mm meteobridge W/m2
14:38 81.9 °F /  27.7 °C 48.2 °F /  9 °C 29.58in /  1001.6hPa SE 4.9mph /  7.9km/h 13.0mph /  20.9km/h 31% 0.00in /  0mm meteobridge W/m2
14:44 82.6 °F /  28.1 °C 48.9 °F /  9.4 °C 29.57in /  1001.2hPa NNW 12.1mph /  19.5km/h 18.0mph /  29km/h 31% 0.00in /  0mm meteobridge W/m2
14:50 82.0 °F /  27.8 °C 48.4 °F /  9.1 °C 29.57in /  1001.2hPa NNW 11.0mph /  17.7km/h 12.0mph /  19.3km/h 31% 0.00in /  0mm meteobridge W/m2
14:56 83.1 °F /  28.4 °C 50.2 °F /  10.1 °C 29.57in /  1001.2hPa NNW 13.0mph /  20.9km/h 14.0mph /  22.5km/h 32% 0.00in /  0mm meteobridge W/m2
15:02 83.7 °F /  28.7 °C 49.8 °F /  9.9 °C 29.56in /  1000.9hPa NW 4.0mph /  6.4km/h 9.0mph /  14.5km/h 31% 0.00in /  0mm meteobridge W/m2
15:09 82.4 °F /  28 °C 49.6 °F /  9.8 °C 29.56in /  1000.9hPa North 4.9mph /  7.9km/h 20.0mph /  32.2km/h 32% 0.00in /  0mm meteobridge W/m2
15:15 80.4 °F /  26.9 °C 50.2 °F /  10.1 °C 29.56in /  1000.9hPa NNW 4.9mph /  7.9km/h 20.0mph /  32.2km/h 35% 0.00in /  0mm meteobridge W/m2
15:21 79.5 °F /  26.4 °C 50.2 °F /  10.1 °C 29.56in /  1000.9hPa NNE 6.0mph /  9.7km/h 16.0mph /  25.7km/h 36% 0.00in /  0mm meteobridge W/m2
15:27 79.3 °F /  26.3 °C 50.0 °F /  10 °C 29.56in /  1000.9hPa NNE 2.9mph /  4.7km/h 11.0mph /  17.7km/h 36% 0.00in /  0mm meteobridge W/m2
15:33 79.0 °F /  26.1 °C 48.9 °F /  9.4 °C 29.56in /  1000.9hPa North 4.9mph /  7.9km/h 15.0mph /  24.1km/h 35% 0.00in /  0mm meteobridge W/m2
15:39 79.2 °F /  26.2 °C 49.8 °F /  9.9 °C 29.56in /  1000.9hPa North 8.1mph /  13km/h 13.0mph /  20.9km/h 36% 0.00in /  0mm meteobridge W/m2
15:45 79.3 °F /  26.3 °C 49.3 °F /  9.6 °C 29.55in /  1000.6hPa NNE 6.0mph /  9.7km/h 13.0mph /  20.9km/h 35% 0.00in /  0mm meteobridge W/m2
15:51 79.5 °F /  26.4 °C 47.8 °F /  8.8 °C 29.55in /  1000.6hPa North 8.9mph /  14.3km/h 13.0mph /  20.9km/h 33% 0.00in /  0mm meteobridge W/m2
15:57 80.8 °F /  27.1 °C 48.9 °F /  9.4 °C 29.55in /  1000.6hPa NNE 4.9mph /  7.9km/h 14.0mph /  22.5km/h 33% 0.00in /  0mm meteobridge W/m2
16:03 81.1 °F /  27.3 °C 50.2 °F /  10.1 °C 29.55in /  1000.6hPa NNW 8.9mph /  14.3km/h 15.0mph /  24.1km/h 34% 0.00in /  0mm meteobridge W/m2
16:22 80.2 °F /  26.8 °C 49.3 °F /  9.6 °C 29.55in /  1000.6hPa North 6.0mph /  9.7km/h 13.0mph /  20.9km/h 34% 0.00in /  0mm meteobridge W/m2
16:28 80.4 °F /  26.9 °C 49.5 °F /  9.7 °C 29.55in /  1000.6hPa North 8.9mph /  14.3km/h 10.0mph /  16.1km/h 34% 0.00in /  0mm meteobridge W/m2
16:34 79.7 °F /  26.5 °C 48.9 °F /  9.4 °C 29.54in /  1000.2hPa North 6.0mph /  9.7km/h 12.0mph /  19.3km/h 34% 0.00in /  0mm meteobridge W/m2
16:40 78.6 °F /  25.9 °C 48.7 °F /  9.3 °C 29.54in /  1000.2hPa North 2.9mph /  4.7km/h 5.0mph /  8km/h 35% 0.00in /  0mm meteobridge W/m2
16:46 78.6 °F /  25.9 °C 48.7 °F /  9.3 °C 29.54in /  1000.2hPa North 4.0mph /  6.4km/h 12.0mph /  19.3km/h 35% 0.00in /  0mm meteobridge W/m2
16:52 79.5 °F /  26.4 °C 49.5 °F /  9.7 °C 29.53in /  999.9hPa NNW 4.0mph /  6.4km/h 11.0mph /  17.7km/h 35% 0.00in /  0mm meteobridge W/m2
16:59 80.4 °F /  26.9 °C 49.5 °F /  9.7 °C 29.53in /  999.9hPa NNW 8.9mph /  14.3km/h 13.0mph /  20.9km/h 34% 0.00in /  0mm meteobridge W/m2
17:05 80.4 °F /  26.9 °C 48.7 °F /  9.3 °C 29.52in /  999.5hPa NNE 2.9mph /  4.7km/h 10.0mph /  16.1km/h 33% 0.00in /  0mm meteobridge W/m2
17:11 81.0 °F /  27.2 °C 49.1 °F /  9.5 °C 29.52in /  999.5hPa NNW 4.0mph /  6.4km/h 7.0mph /  11.3km/h 33% 0.00in /  0mm meteobridge W/m2
17:17 82.0 °F /  27.8 °C 49.3 °F /  9.6 °C 29.52in /  999.5hPa NW 4.0mph /  6.4km/h 5.0mph /  8km/h 32% 0.00in /  0mm meteobridge W/m2
17:23 81.3 °F /  27.4 °C 49.5 °F /  9.7 °C 29.53in /  999.9hPa NW 4.0mph /  6.4km/h 6.0mph /  9.7km/h 33% 0.00in /  0mm meteobridge W/m2
17:29 81.3 °F /  27.4 °C 49.5 °F /  9.7 °C 29.53in /  999.9hPa NNE 2.0mph /  3.2km/h 10.0mph /  16.1km/h 33% 0.00in /  0mm meteobridge W/m2
17:36 81.3 °F /  27.4 °C 49.5 °F /  9.7 °C 29.52in /  999.5hPa East 0.9mph /  1.4km/h 5.0mph /  8km/h 33% 0.00in /  0mm meteobridge W/m2
17:42 81.7 °F /  27.6 °C 50.5 °F /  10.3 °C 29.52in /  999.5hPa South 4.9mph /  7.9km/h 6.0mph /  9.7km/h 34% 0.00in /  0mm meteobridge W/m2
17:48 81.1 °F /  27.3 °C 49.3 °F /  9.6 °C 29.52in /  999.5hPa Calm   3.0mph /  4.8km/h 33% 0.00in /  0mm meteobridge W/m2
17:54 81.0 °F /  27.2 °C 49.1 °F /  9.5 °C 29.52in /  999.5hPa NE 0.9mph /  1.4km/h 5.0mph /  8km/h 33% 0.00in /  0mm meteobridge W/m2
18:01 80.2 °F /  26.8 °C 49.3 °F /  9.6 °C 29.52in /  999.5hPa South 2.0mph /  3.2km/h 2.0mph /  3.2km/h 34% 0.00in /  0mm meteobridge W/m2
18:07 80.2 °F /  26.8 °C 49.3 °F /  9.6 °C 29.55in /  1000.6hPa South 2.0mph /  3.2km/h -999.0mph /  -1607.7km/h 34% 0.00in /  0mm meteobridge W/m2
18:14 80.2 °F /  26.8 °C 49.3 °F /  9.6 °C 29.54in /  1000.2hPa North -999.9mph /  -1609.1km/h -999.0mph /  -1607.7km/h 34% 0.00in /  0mm meteobridge W/m2
Regenstein, Windhoek, Namibia
Compliments of Weather Underground - 2.5 mb